sensor_id;sensor_type;location;lat;lon;timestamp;P1;durP1;ratioP1;P2;durP2;ratioP2
21492;SDS011;10908;50.690;4.400;2024-03-23T00:55:17;8.40;;;2.78;;
21492;SDS011;10908;50.690;4.400;2024-03-23T00:57:43;15.43;;;3.40;;
21492;SDS011;10908;50.690;4.400;2024-03-23T01:00:09;12.10;;;3.03;;
21492;SDS011;10908;50.690;4.400;2024-03-23T01:02:35;9.90;;;2.90;;
21492;SDS011;10908;50.690;4.400;2024-03-23T01:05:01;11.77;;;3.15;;
21492;SDS011;10908;50.690;4.400;2024-03-23T01:07:27;9.32;;;2.80;;
21492;SDS011;10908;50.690;4.400;2024-03-23T01:09:53;8.13;;;2.72;;
21492;SDS011;10908;50.690;4.400;2024-03-23T01:12:18;12.73;;;3.03;;
21492;SDS011;10908;50.690;4.400;2024-03-23T01:14:44;11.98;;;2.92;;
21492;SDS011;10908;50.690;4.400;2024-03-23T01:17:09;12.07;;;3.47;;
21492;SDS011;10908;50.690;4.400;2024-03-23T01:19:35;8.93;;;2.80;;
21492;SDS011;10908;50.690;4.400;2024-03-23T01:22:01;10.15;;;2.90;;
21492;SDS011;10908;50.690;4.400;2024-03-23T01:24:26;12.60;;;2.72;;
21492;SDS011;10908;50.690;4.400;2024-03-23T01:26:52;10.18;;;2.83;;
21492;SDS011;10908;50.690;4.400;2024-03-23T01:29:18;13.63;;;3.00;;
21492;SDS011;10908;50.690;4.400;2024-03-23T01:31:43;9.95;;;2.60;;
21492;SDS011;10908;50.690;4.400;2024-03-23T01:34:09;11.18;;;2.80;;
21492;SDS011;10908;50.690;4.400;2024-03-23T01:36:35;13.65;;;3.50;;
21492;SDS011;10908;50.690;4.400;2024-03-23T01:39:00;14.18;;;3.28;;
21492;SDS011;10908;50.690;4.400;2024-03-23T01:41:26;11.27;;;3.60;;
21492;SDS011;10908;50.690;4.400;2024-03-23T01:43:52;15.70;;;3.92;;
21492;SDS011;10908;50.690;4.400;2024-03-23T01:46:19;12.15;;;3.45;;
21492;SDS011;10908;50.690;4.400;2024-03-23T01:48:45;9.90;;;3.47;;
21492;SDS011;10908;50.690;4.400;2024-03-23T01:51:12;9.95;;;3.42;;
21492;SDS011;10908;50.690;4.400;2024-03-23T01:53:38;9.38;;;3.40;;
21492;SDS011;10908;50.690;4.400;2024-03-23T01:56:04;11.65;;;3.70;;
21492;SDS011;10908;50.690;4.400;2024-03-23T01:58:30;12.63;;;3.83;;
21492;SDS011;10908;50.690;4.400;2024-03-23T02:00:57;11.63;;;4.00;;
21492;SDS011;10908;50.690;4.400;2024-03-23T02:03:26;14.52;;;4.30;;
21492;SDS011;10908;50.690;4.400;2024-03-23T02:05:53;17.55;;;5.18;;
21492;SDS011;10908;50.690;4.400;2024-03-23T02:08:20;16.75;;;5.18;;
21492;SDS011;10908;50.690;4.400;2024-03-23T02:10:48;18.58;;;6.53;;
21492;SDS011;10908;50.690;4.400;2024-03-23T02:13:17;18.10;;;6.90;;
21492;SDS011;10908;50.690;4.400;2024-03-23T02:15:43;19.92;;;6.90;;
21492;SDS011;10908;50.690;4.400;2024-03-23T02:18:09;23.38;;;7.70;;
21492;SDS011;10908;50.690;4.400;2024-03-23T02:20:36;25.85;;;7.65;;
21492;SDS011;10908;50.690;4.400;2024-03-23T02:23:02;20.58;;;7.50;;
21492;SDS011;10908;50.690;4.400;2024-03-23T02:25:28;19.85;;;7.45;;
21492;SDS011;10908;50.690;4.400;2024-03-23T02:27:54;22.27;;;7.53;;
21492;SDS011;10908;50.690;4.400;2024-03-23T02:30:20;22.90;;;7.43;;
21492;SDS011;10908;50.690;4.400;2024-03-23T02:32:46;19.75;;;7.78;;
21492;SDS011;10908;50.690;4.400;2024-03-23T02:35:11;20.23;;;7.47;;
21492;SDS011;10908;50.690;4.400;2024-03-23T02:37:37;22.58;;;7.82;;
21492;SDS011;10908;50.690;4.400;2024-03-23T02:40:03;17.90;;;7.22;;
21492;SDS011;10908;50.690;4.400;2024-03-23T02:42:29;21.55;;;7.80;;
21492;SDS011;10908;50.690;4.400;2024-03-23T02:44:54;19.25;;;7.50;;
21492;SDS011;10908;50.690;4.400;2024-03-23T02:47:20;19.48;;;7.68;;
21492;SDS011;10908;50.690;4.400;2024-03-23T02:49:45;25.40;;;8.45;;
21492;SDS011;10908;50.690;4.400;2024-03-23T02:52:11;23.88;;;9.15;;
21492;SDS011;10908;50.690;4.400;2024-03-23T02:54:37;28.15;;;8.82;;
21492;SDS011;10908;50.690;4.400;2024-03-23T02:57:02;21.33;;;9.70;;
21492;SDS011;10908;50.690;4.400;2024-03-23T02:59:28;23.35;;;9.75;;
21492;SDS011;10908;50.690;4.400;2024-03-23T03:01:54;23.45;;;11.20;;
21492;SDS011;10908;50.690;4.400;2024-03-23T03:04:20;25.90;;;11.35;;
21492;SDS011;10908;50.690;4.400;2024-03-23T03:06:46;26.45;;;11.13;;
21492;SDS011;10908;50.690;4.400;2024-03-23T03:09:12;25.83;;;11.80;;
21492;SDS011;10908;50.690;4.400;2024-03-23T03:11:38;28.50;;;12.10;;
21492;SDS011;10908;50.690;4.400;2024-03-23T03:14:03;28.83;;;12.65;;
21492;SDS011;10908;50.690;4.400;2024-03-23T03:16:35;26.10;;;13.20;;
21492;SDS011;10908;50.690;4.400;2024-03-23T03:19:09;25.88;;;12.52;;
21492;SDS011;10908;50.690;4.400;2024-03-23T03:21:54;28.50;;;12.68;;
21492;SDS011;10908;50.690;4.400;2024-03-23T03:24:20;31.02;;;12.52;;
21492;SDS011;10908;50.690;4.400;2024-03-23T03:26:46;27.30;;;12.27;;
21492;SDS011;10908;50.690;4.400;2024-03-23T03:29:12;30.30;;;12.75;;
21492;SDS011;10908;50.690;4.400;2024-03-23T03:31:38;31.20;;;13.02;;
21492;SDS011;10908;50.690;4.400;2024-03-23T03:34:04;23.33;;;11.77;;
21492;SDS011;10908;50.690;4.400;2024-03-23T03:36:30;23.55;;;11.43;;
21492;SDS011;10908;50.690;4.400;2024-03-23T03:38:56;25.50;;;10.85;;
21492;SDS011;10908;50.690;4.400;2024-03-23T03:41:21;27.75;;;10.75;;
21492;SDS011;10908;50.690;4.400;2024-03-23T03:43:47;24.58;;;10.77;;
21492;SDS011;10908;50.690;4.400;2024-03-23T03:46:12;22.70;;;10.07;;
21492;SDS011;10908;50.690;4.400;2024-03-23T03:48:38;22.92;;;9.88;;
21492;SDS011;10908;50.690;4.400;2024-03-23T03:51:04;22.60;;;10.00;;
21492;SDS011;10908;50.690;4.400;2024-03-23T03:53:30;23.45;;;9.57;;
21492;SDS011;10908;50.690;4.400;2024-03-23T03:55:56;21.88;;;9.48;;
21492;SDS011;10908;50.690;4.400;2024-03-23T03:58:25;25.65;;;9.55;;
21492;SDS011;10908;50.690;4.400;2024-03-23T04:00:51;19.73;;;8.70;;
21492;SDS011;10908;50.690;4.400;2024-03-23T04:03:16;22.20;;;9.38;;
21492;SDS011;10908;50.690;4.400;2024-03-23T04:05:42;23.95;;;8.48;;
21492;SDS011;10908;50.690;4.400;2024-03-23T04:08:08;19.98;;;9.02;;
21492;SDS011;10908;50.690;4.400;2024-03-23T04:10:33;22.98;;;8.90;;
21492;SDS011;10908;50.690;4.400;2024-03-23T04:12:59;21.52;;;8.25;;
21492;SDS011;10908;50.690;4.400;2024-03-23T04:15:26;23.88;;;8.95;;
21492;SDS011;10908;50.690;4.400;2024-03-23T04:17:51;19.55;;;8.48;;
21492;SDS011;10908;50.690;4.400;2024-03-23T04:20:17;17.13;;;7.82;;
21492;SDS011;10908;50.690;4.400;2024-03-23T04:22:43;24.02;;;8.90;;
21492;SDS011;10908;50.690;4.400;2024-03-23T04:25:09;22.00;;;8.73;;
21492;SDS011;10908;50.690;4.400;2024-03-23T04:27:38;20.17;;;8.18;;
21492;SDS011;10908;50.690;4.400;2024-03-23T04:30:05;18.60;;;7.88;;
21492;SDS011;10908;50.690;4.400;2024-03-23T04:32:39;21.02;;;7.60;;
21492;SDS011;10908;50.690;4.400;2024-03-23T04:35:05;27.48;;;7.90;;
21492;SDS011;10908;50.690;4.400;2024-03-23T04:37:34;20.77;;;7.57;;
21492;SDS011;10908;50.690;4.400;2024-03-23T04:40:03;18.63;;;7.13;;
21492;SDS011;10908;50.690;4.400;2024-03-23T04:42:29;21.02;;;7.40;;
21492;SDS011;10908;50.690;4.400;2024-03-23T04:44:56;23.10;;;7.68;;
21492;SDS011;10908;50.690;4.400;2024-03-23T04:47:22;19.00;;;7.07;;
21492;SDS011;10908;50.690;4.400;2024-03-23T04:49:47;16.80;;;6.70;;
21492;SDS011;10908;50.690;4.400;2024-03-23T04:52:13;21.73;;;6.88;;
21492;SDS011;10908;50.690;4.400;2024-03-23T04:54:40;16.40;;;7.13;;
21492;SDS011;10908;50.690;4.400;2024-03-23T04:57:06;16.20;;;7.47;;
21492;SDS011;10908;50.690;4.400;2024-03-23T04:59:32;22.98;;;7.32;;
21492;SDS011;10908;50.690;4.400;2024-03-23T05:01:58;20.48;;;7.00;;
21492;SDS011;10908;50.690;4.400;2024-03-23T05:04:24;18.70;;;7.22;;
21492;SDS011;10908;50.690;4.400;2024-03-23T05:06:50;18.27;;;6.68;;
21492;SDS011;10908;50.690;4.400;2024-03-23T05:09:16;12.90;;;4.88;;
21492;SDS011;10908;50.690;4.400;2024-03-23T05:11:42;14.88;;;3.97;;
21492;SDS011;10908;50.690;4.400;2024-03-23T05:14:07;12.32;;;3.30;;
21492;SDS011;10908;50.690;4.400;2024-03-23T05:16:33;12.80;;;2.58;;
21492;SDS011;10908;50.690;4.400;2024-03-23T05:18:59;10.43;;;2.45;;
21492;SDS011;10908;50.690;4.400;2024-03-23T05:21:25;14.07;;;2.58;;
21492;SDS011;10908;50.690;4.400;2024-03-23T05:23:53;14.40;;;3.10;;
21492;SDS011;10908;50.690;4.400;2024-03-23T05:26:19;11.10;;;3.63;;
21492;SDS011;10908;50.690;4.400;2024-03-23T05:28:44;13.35;;;3.50;;
21492;SDS011;10908;50.690;4.400;2024-03-23T05:31:10;14.60;;;4.20;;
21492;SDS011;10908;50.690;4.400;2024-03-23T05:33:36;13.15;;;3.58;;
21492;SDS011;10908;50.690;4.400;2024-03-23T05:36:06;17.27;;;4.05;;
21492;SDS011;10908;50.690;4.400;2024-03-23T05:38:36;10.63;;;3.50;;
21492;SDS011;10908;50.690;4.400;2024-03-23T05:41:01;15.32;;;4.07;;
21492;SDS011;10908;50.690;4.400;2024-03-23T05:43:36;18.95;;;3.63;;
21492;SDS011;10908;50.690;4.400;2024-03-23T05:46:27;13.05;;;2.95;;
21492;SDS011;10908;50.690;4.400;2024-03-23T05:49:01;13.45;;;3.08;;
21492;SDS011;10908;50.690;4.400;2024-03-23T05:51:27;15.32;;;3.55;;
21492;SDS011;10908;50.690;4.400;2024-03-23T05:53:53;13.98;;;2.67;;
21492;SDS011;10908;50.690;4.400;2024-03-23T05:56:19;18.70;;;2.92;;
21492;SDS011;10908;50.690;4.400;2024-03-23T05:58:45;12.45;;;2.67;;
21492;SDS011;10908;50.690;4.400;2024-03-23T06:01:17;14.55;;;2.67;;
21492;SDS011;10908;50.690;4.400;2024-03-23T06:04:05;13.52;;;2.20;;
21492;SDS011;10908;50.690;4.400;2024-03-23T06:06:31;10.27;;;2.50;;
21492;SDS011;10908;50.690;4.400;2024-03-23T06:08:57;15.38;;;2.80;;
21492;SDS011;10908;50.690;4.400;2024-03-23T06:11:22;13.02;;;3.10;;
21492;SDS011;10908;50.690;4.400;2024-03-23T06:13:48;17.88;;;2.45;;
21492;SDS011;10908;50.690;4.400;2024-03-23T06:16:13;13.40;;;2.60;;
21492;SDS011;10908;50.690;4.400;2024-03-23T06:18:39;13.25;;;2.45;;
21492;SDS011;10908;50.690;4.400;2024-03-23T06:21:05;12.25;;;2.58;;
21492;SDS011;10908;50.690;4.400;2024-03-23T06:23:38;12.15;;;2.40;;
21492;SDS011;10908;50.690;4.400;2024-03-23T06:26:04;19.30;;;2.60;;
21492;SDS011;10908;50.690;4.400;2024-03-23T06:28:30;12.07;;;2.17;;
21492;SDS011;10908;50.690;4.400;2024-03-23T06:30:55;11.80;;;2.60;;
21492;SDS011;10908;50.690;4.400;2024-03-23T06:33:21;13.77;;;2.50;;
21492;SDS011;10908;50.690;4.400;2024-03-23T06:35:52;13.32;;;2.17;;
21492;SDS011;10908;50.690;4.400;2024-03-23T06:38:18;12.55;;;2.95;;
21492;SDS011;10908;50.690;4.400;2024-03-23T06:40:44;12.98;;;2.45;;
21492;SDS011;10908;50.690;4.400;2024-03-23T06:43:15;9.73;;;2.03;;
21492;SDS011;10908;50.690;4.400;2024-03-23T06:45:41;14.00;;;2.10;;
21492;SDS011;10908;50.690;4.400;2024-03-23T06:48:07;11.70;;;2.70;;
21492;SDS011;10908;50.690;4.400;2024-03-23T06:50:33;15.00;;;3.00;;
21492;SDS011;10908;50.690;4.400;2024-03-23T06:52:59;13.75;;;2.38;;
21492;SDS011;10908;50.690;4.400;2024-03-23T06:55:26;13.68;;;2.25;;
21492;SDS011;10908;50.690;4.400;2024-03-23T06:57:55;10.43;;;2.00;;
21492;SDS011;10908;50.690;4.400;2024-03-23T07:00:21;12.65;;;2.33;;
21492;SDS011;10908;50.690;4.400;2024-03-23T07:02:47;15.10;;;2.40;;
21492;SDS011;10908;50.690;4.400;2024-03-23T07:05:12;10.52;;;2.50;;
21492;SDS011;10908;50.690;4.400;2024-03-23T07:07:38;16.88;;;2.72;;
21492;SDS011;10908;50.690;4.400;2024-03-23T07:10:04;13.70;;;2.30;;
21492;SDS011;10908;50.690;4.400;2024-03-23T07:12:30;16.73;;;2.20;;
21492;SDS011;10908;50.690;4.400;2024-03-23T07:14:56;16.13;;;2.30;;
21492;SDS011;10908;50.690;4.400;2024-03-23T07:17:22;15.55;;;2.58;;
21492;SDS011;10908;50.690;4.400;2024-03-23T07:19:48;16.20;;;2.80;;
21492;SDS011;10908;50.690;4.400;2024-03-23T07:22:13;11.05;;;2.20;;
21492;SDS011;10908;50.690;4.400;2024-03-23T07:24:39;14.30;;;2.67;;
21492;SDS011;10908;50.690;4.400;2024-03-23T07:27:05;14.90;;;2.53;;
21492;SDS011;10908;50.690;4.400;2024-03-23T07:29:35;13.85;;;2.17;;
21492;SDS011;10908;50.690;4.400;2024-03-23T07:32:01;11.73;;;2.40;;
21492;SDS011;10908;50.690;4.400;2024-03-23T07:34:26;14.93;;;2.42;;
21492;SDS011;10908;50.690;4.400;2024-03-23T07:36:52;13.93;;;2.70;;
21492;SDS011;10908;50.690;4.400;2024-03-23T07:39:17;12.15;;;2.45;;
21492;SDS011;10908;50.690;4.400;2024-03-23T07:41:46;10.50;;;2.58;;
21492;SDS011;10908;50.690;4.400;2024-03-23T07:44:12;19.33;;;2.88;;
21492;SDS011;10908;50.690;4.400;2024-03-23T07:46:37;12.43;;;2.40;;
21492;SDS011;10908;50.690;4.400;2024-03-23T07:49:06;13.68;;;2.92;;
21492;SDS011;10908;50.690;4.400;2024-03-23T07:51:31;14.55;;;3.00;;
21492;SDS011;10908;50.690;4.400;2024-03-23T07:53:58;11.70;;;2.40;;
21492;SDS011;10908;50.690;4.400;2024-03-23T07:56:24;13.98;;;2.78;;
21492;SDS011;10908;50.690;4.400;2024-03-23T07:58:50;13.88;;;2.60;;
21492;SDS011;10908;50.690;4.400;2024-03-23T08:01:16;13.85;;;2.67;;
21492;SDS011;10908;50.690;4.400;2024-03-23T08:03:43;13.57;;;2.67;;
21492;SDS011;10908;50.690;4.400;2024-03-23T08:06:09;14.68;;;2.50;;
21492;SDS011;10908;50.690;4.400;2024-03-23T08:08:39;14.48;;;2.75;;
21492;SDS011;10908;50.690;4.400;2024-03-23T08:11:06;16.13;;;2.65;;
21492;SDS011;10908;50.690;4.400;2024-03-23T08:13:33;13.23;;;2.35;;
21492;SDS011;10908;50.690;4.400;2024-03-23T08:16:03;15.18;;;2.45;;
21492;SDS011;10908;50.690;4.400;2024-03-23T08:18:29;12.25;;;2.50;;
21492;SDS011;10908;50.690;4.400;2024-03-23T08:20:59;12.18;;;2.60;;
21492;SDS011;10908;50.690;4.400;2024-03-23T08:23:26;14.52;;;2.53;;
21492;SDS011;10908;50.690;4.400;2024-03-23T08:25:57;14.82;;;2.90;;
21492;SDS011;10908;50.690;4.400;2024-03-23T08:28:23;11.27;;;2.63;;
21492;SDS011;10908;50.690;4.400;2024-03-23T08:30:49;9.00;;;2.25;;
21492;SDS011;10908;50.690;4.400;2024-03-23T08:33:15;18.65;;;2.40;;
21492;SDS011;10908;50.690;4.400;2024-03-23T08:35:41;14.95;;;2.80;;
21492;SDS011;10908;50.690;4.400;2024-03-23T08:38:07;15.00;;;2.67;;
21492;SDS011;10908;50.690;4.400;2024-03-23T08:40:33;13.40;;;2.75;;
21492;SDS011;10908;50.690;4.400;2024-03-23T08:42:58;13.20;;;2.40;;
21492;SDS011;10908;50.690;4.400;2024-03-23T08:45:24;10.45;;;2.10;;
21492;SDS011;10908;50.690;4.400;2024-03-23T08:47:50;16.52;;;2.80;;
21492;SDS011;10908;50.690;4.400;2024-03-23T08:50:17;11.27;;;2.70;;
21492;SDS011;10908;50.690;4.400;2024-03-23T08:52:42;14.93;;;3.25;;
21492;SDS011;10908;50.690;4.400;2024-03-23T08:55:09;11.70;;;2.50;;
21492;SDS011;10908;50.690;4.400;2024-03-23T08:57:35;9.05;;;2.60;;
21492;SDS011;10908;50.690;4.400;2024-03-23T09:00:01;9.00;;;2.30;;
21492;SDS011;10908;50.690;4.400;2024-03-23T09:02:27;12.93;;;2.67;;
21492;SDS011;10908;50.690;4.400;2024-03-23T09:04:53;14.25;;;2.47;;
21492;SDS011;10908;50.690;4.400;2024-03-23T09:07:18;10.25;;;2.78;;
21492;SDS011;10908;50.690;4.400;2024-03-23T09:09:44;13.88;;;2.88;;
21492;SDS011;10908;50.690;4.400;2024-03-23T09:12:10;9.60;;;2.58;;
21492;SDS011;10908;50.690;4.400;2024-03-23T09:14:35;15.35;;;2.92;;
21492;SDS011;10908;50.690;4.400;2024-03-23T09:17:01;10.43;;;2.42;;
21492;SDS011;10908;50.690;4.400;2024-03-23T09:19:28;9.95;;;2.50;;
21492;SDS011;10908;50.690;4.400;2024-03-23T09:21:54;8.52;;;2.17;;
21492;SDS011;10908;50.690;4.400;2024-03-23T09:24:20;9.02;;;2.08;;
21492;SDS011;10908;50.690;4.400;2024-03-23T09:26:46;9.32;;;2.08;;
21492;SDS011;10908;50.690;4.400;2024-03-23T09:29:11;10.07;;;2.20;;
21492;SDS011;10908;50.690;4.400;2024-03-23T09:31:37;7.82;;;2.10;;
21492;SDS011;10908;50.690;4.400;2024-03-23T09:34:03;9.48;;;2.13;;
21492;SDS011;10908;50.690;4.400;2024-03-23T09:36:29;11.98;;;2.00;;
21492;SDS011;10908;50.690;4.400;2024-03-23T09:38:54;8.65;;;1.92;;
21492;SDS011;10908;50.690;4.400;2024-03-23T09:41:20;6.95;;;1.73;;
21492;SDS011;10908;50.690;4.400;2024-03-23T09:43:46;9.70;;;1.67;;
21492;SDS011;10908;50.690;4.400;2024-03-23T09:46:13;7.15;;;1.55;;
21492;SDS011;10908;50.690;4.400;2024-03-23T09:48:39;7.13;;;1.70;;
21492;SDS011;10908;50.690;4.400;2024-03-23T09:51:05;11.25;;;1.80;;
21492;SDS011;10908;50.690;4.400;2024-03-23T09:53:34;9.98;;;1.80;;
21492;SDS011;10908;50.690;4.400;2024-03-23T09:55:59;7.40;;;1.52;;
21492;SDS011;10908;50.690;4.400;2024-03-23T09:58:25;11.88;;;1.42;;
21492;SDS011;10908;50.690;4.400;2024-03-23T10:00:51;11.18;;;1.45;;
21492;SDS011;10908;50.690;4.400;2024-03-23T10:03:17;6.28;;;1.33;;
21492;SDS011;10908;50.690;4.400;2024-03-23T10:05:42;6.90;;;1.40;;
21492;SDS011;10908;50.690;4.400;2024-03-23T10:10:40;8.15;;;1.48;;
21492;SDS011;10908;50.690;4.400;2024-03-23T10:13:06;8.70;;;1.30;;
21492;SDS011;10908;50.690;4.400;2024-03-23T10:15:33;10.23;;;1.52;;
21492;SDS011;10908;50.690;4.400;2024-03-23T10:20:43;10.25;;;1.30;;
21492;SDS011;10908;50.690;4.400;2024-03-23T10:23:18;6.93;;;1.13;;
21492;SDS011;10908;50.690;4.400;2024-03-23T10:25:43;7.45;;;1.00;;
21492;SDS011;10908;50.690;4.400;2024-03-23T10:28:10;10.75;;;1.40;;
21492;SDS011;10908;50.690;4.400;2024-03-23T10:30:36;8.65;;;1.15;;
21492;SDS011;10908;50.690;4.400;2024-03-23T10:33:11;10.48;;;1.42;;
21492;SDS011;10908;50.690;4.400;2024-03-23T10:35:38;9.82;;;1.25;;
21492;SDS011;10908;50.690;4.400;2024-03-23T10:38:04;8.63;;;1.48;;
21492;SDS011;10908;50.690;4.400;2024-03-23T10:40:34;8.32;;;1.35;;
21492;SDS011;10908;50.690;4.400;2024-03-23T10:43:00;10.45;;;1.40;;
21492;SDS011;10908;50.690;4.400;2024-03-23T10:45:28;10.20;;;1.77;;
21492;SDS011;10908;50.690;4.400;2024-03-23T10:47:54;7.38;;;1.35;;
21492;SDS011;10908;50.690;4.400;2024-03-23T10:50:21;9.35;;;1.85;;
21492;SDS011;10908;50.690;4.400;2024-03-23T10:52:47;7.15;;;1.17;;
21492;SDS011;10908;50.690;4.400;2024-03-23T10:55:15;7.15;;;1.02;;
21492;SDS011;10908;50.690;4.400;2024-03-23T10:58:05;7.88;;;1.30;;
21492;SDS011;10908;50.690;4.400;2024-03-23T11:00:29;8.25;;;1.08;;
21492;SDS011;10908;50.690;4.400;2024-03-23T11:02:55;8.63;;;1.15;;
21492;SDS011;10908;50.690;4.400;2024-03-23T11:07:50;9.02;;;1.17;;
21492;SDS011;10908;50.690;4.400;2024-03-23T11:10:26;7.55;;;1.08;;
21492;SDS011;10908;50.690;4.400;2024-03-23T11:13:03;6.53;;;1.08;;
21492;SDS011;10908;50.690;4.400;2024-03-23T11:15:47;7.97;;;1.45;;
21492;SDS011;10908;50.690;4.400;2024-03-23T11:18:13;5.03;;;0.93;;
21492;SDS011;10908;50.690;4.400;2024-03-23T11:20:46;7.30;;;1.00;;
21492;SDS011;10908;50.690;4.400;2024-03-23T11:23:27;8.63;;;0.88;;
21492;SDS011;10908;50.690;4.400;2024-03-23T11:25:53;6.88;;;1.00;;
21492;SDS011;10908;50.690;4.400;2024-03-23T11:28:19;8.23;;;1.13;;
21492;SDS011;10908;50.690;4.400;2024-03-23T11:30:44;8.82;;;1.67;;
21492;SDS011;10908;50.690;4.400;2024-03-23T11:33:10;6.50;;;1.10;;
21492;SDS011;10908;50.690;4.400;2024-03-23T11:35:39;6.53;;;1.00;;
21492;SDS011;10908;50.690;4.400;2024-03-23T11:38:06;4.90;;;0.70;;
21492;SDS011;10908;50.690;4.400;2024-03-23T11:40:34;5.32;;;1.02;;
21492;SDS011;10908;50.690;4.400;2024-03-23T11:43:01;6.03;;;0.90;;
21492;SDS011;10908;50.690;4.400;2024-03-23T11:45:29;6.30;;;1.13;;
21492;SDS011;10908;50.690;4.400;2024-03-23T11:48:33;6.00;;;1.00;;
21492;SDS011;10908;50.690;4.400;2024-03-23T11:50:56;8.55;;;1.10;;
21492;SDS011;10908;50.690;4.400;2024-03-23T11:53:23;7.47;;;1.20;;
21492;SDS011;10908;50.690;4.400;2024-03-23T11:58:19;6.85;;;1.00;;
21492;SDS011;10908;50.690;4.400;2024-03-23T12:00:58;4.53;;;0.70;;
21492;SDS011;10908;50.690;4.400;2024-03-23T12:03:27;9.25;;;1.00;;
21492;SDS011;10908;50.690;4.400;2024-03-23T12:05:56;10.68;;;1.60;;
21492;SDS011;10908;50.690;4.400;2024-03-23T12:08:24;6.95;;;0.95;;
21492;SDS011;10908;50.690;4.400;2024-03-23T12:11:14;4.25;;;0.50;;
21492;SDS011;10908;50.690;4.400;2024-03-23T12:13:41;1.75;;;0.38;;
21492;SDS011;10908;50.690;4.400;2024-03-23T12:16:10;2.25;;;0.50;;
21492;SDS011;10908;50.690;4.400;2024-03-23T12:18:37;2.65;;;0.40;;
21492;SDS011;10908;50.690;4.400;2024-03-23T12:21:05;4.45;;;0.50;;
21492;SDS011;10908;50.690;4.400;2024-03-23T12:23:31;4.43;;;0.52;;
21492;SDS011;10908;50.690;4.400;2024-03-23T12:25:57;3.92;;;0.60;;
21492;SDS011;10908;50.690;4.400;2024-03-23T12:28:23;5.75;;;0.70;;
21492;SDS011;10908;50.690;4.400;2024-03-23T12:30:48;3.38;;;0.68;;
21492;SDS011;10908;50.690;4.400;2024-03-23T12:33:14;7.32;;;0.82;;
21492;SDS011;10908;50.690;4.400;2024-03-23T12:35:40;5.13;;;0.85;;
21492;SDS011;10908;50.690;4.400;2024-03-23T12:38:05;5.05;;;0.68;;
21492;SDS011;10908;50.690;4.400;2024-03-23T12:40:32;4.38;;;1.00;;
21492;SDS011;10908;50.690;4.400;2024-03-23T12:42:57;4.43;;;0.70;;
21492;SDS011;10908;50.690;4.400;2024-03-23T12:45:23;6.13;;;0.70;;
21492;SDS011;10908;50.690;4.400;2024-03-23T12:47:49;6.78;;;0.80;;
21492;SDS011;10908;50.690;4.400;2024-03-23T12:50:17;6.07;;;1.25;;
21492;SDS011;10908;50.690;4.400;2024-03-23T12:52:43;8.13;;;1.13;;
21492;SDS011;10908;50.690;4.400;2024-03-23T12:55:08;7.15;;;0.98;;
21492;SDS011;10908;50.690;4.400;2024-03-23T12:57:34;7.70;;;1.05;;
21492;SDS011;10908;50.690;4.400;2024-03-23T13:00:00;7.30;;;1.08;;
21492;SDS011;10908;50.690;4.400;2024-03-23T13:02:25;5.38;;;0.85;;
21492;SDS011;10908;50.690;4.400;2024-03-23T13:04:51;20.35;;;2.03;;
21492;SDS011;10908;50.690;4.400;2024-03-23T13:07:18;7.25;;;1.08;;
21492;SDS011;10908;50.690;4.400;2024-03-23T13:09:45;6.75;;;1.27;;
21492;SDS011;10908;50.690;4.400;2024-03-23T13:12:11;6.95;;;1.23;;
21492;SDS011;10908;50.690;4.400;2024-03-23T13:14:40;8.30;;;0.90;;
21492;SDS011;10908;50.690;4.400;2024-03-23T13:17:06;7.72;;;0.90;;
21492;SDS011;10908;50.690;4.400;2024-03-23T13:19:32;8.75;;;1.10;;
21492;SDS011;10908;50.690;4.400;2024-03-23T13:21:58;6.90;;;1.00;;
21492;SDS011;10908;50.690;4.400;2024-03-23T13:24:25;7.60;;;1.13;;
21492;SDS011;10908;50.690;4.400;2024-03-23T13:26:52;6.72;;;0.98;;
21492;SDS011;10908;50.690;4.400;2024-03-23T13:29:18;7.15;;;1.10;;
21492;SDS011;10908;50.690;4.400;2024-03-23T13:31:48;6.22;;;1.05;;
21492;SDS011;10908;50.690;4.400;2024-03-23T13:34:14;4.53;;;0.75;;
21492;SDS011;10908;50.690;4.400;2024-03-23T13:36:46;5.72;;;1.00;;
21492;SDS011;10908;50.690;4.400;2024-03-23T13:39:12;5.45;;;1.00;;
21492;SDS011;10908;50.690;4.400;2024-03-23T13:44:09;6.82;;;0.93;;
21492;SDS011;10908;50.690;4.400;2024-03-23T13:46:36;6.20;;;0.98;;
21492;SDS011;10908;50.690;4.400;2024-03-23T13:49:02;7.20;;;1.35;;
21492;SDS011;10908;50.690;4.400;2024-03-23T13:51:28;6.55;;;1.20;;
21492;SDS011;10908;50.690;4.400;2024-03-23T13:53:54;8.43;;;0.90;;
21492;SDS011;10908;50.690;4.400;2024-03-23T13:56:21;7.95;;;1.67;;
21492;SDS011;10908;50.690;4.400;2024-03-23T13:58:47;6.00;;;0.88;;
21492;SDS011;10908;50.690;4.400;2024-03-23T14:01:14;6.95;;;0.90;;
21492;SDS011;10908;50.690;4.400;2024-03-23T14:03:40;6.47;;;1.15;;
21492;SDS011;10908;50.690;4.400;2024-03-23T14:06:06;9.13;;;1.20;;
21492;SDS011;10908;50.690;4.400;2024-03-23T14:08:33;5.15;;;1.15;;
21492;SDS011;10908;50.690;4.400;2024-03-23T14:11:01;6.05;;;1.00;;
21492;SDS011;10908;50.690;4.400;2024-03-23T14:13:28;8.88;;;1.20;;
21492;SDS011;10908;50.690;4.400;2024-03-23T14:15:54;10.25;;;2.28;;
21492;SDS011;10908;50.690;4.400;2024-03-23T14:18:20;6.97;;;0.88;;
21492;SDS011;10908;50.690;4.400;2024-03-23T14:20:49;8.98;;;0.95;;
21492;SDS011;10908;50.690;4.400;2024-03-23T14:23:15;7.53;;;0.85;;
21492;SDS011;10908;50.690;4.400;2024-03-23T14:25:41;7.68;;;1.30;;
21492;SDS011;10908;50.690;4.400;2024-03-23T14:28:07;5.88;;;1.20;;
21492;SDS011;10908;50.690;4.400;2024-03-23T14:30:39;5.45;;;1.30;;
21492;SDS011;10908;50.690;4.400;2024-03-23T14:33:05;6.13;;;1.08;;
21492;SDS011;10908;50.690;4.400;2024-03-23T14:35:31;7.57;;;1.75;;
21492;SDS011;10908;50.690;4.400;2024-03-23T14:37:58;9.40;;;1.63;;
21492;SDS011;10908;50.690;4.400;2024-03-23T14:40:24;5.78;;;1.02;;
21492;SDS011;10908;50.690;4.400;2024-03-23T14:42:52;7.45;;;1.23;;
21492;SDS011;10908;50.690;4.400;2024-03-23T14:45:19;7.50;;;2.25;;
21492;SDS011;10908;50.690;4.400;2024-03-23T14:47:45;8.15;;;1.70;;
21492;SDS011;10908;50.690;4.400;2024-03-23T14:50:11;10.27;;;1.65;;
21492;SDS011;10908;50.690;4.400;2024-03-23T14:52:40;6.57;;;1.50;;
21492;SDS011;10908;50.690;4.400;2024-03-23T14:55:07;9.77;;;2.70;;
21492;SDS011;10908;50.690;4.400;2024-03-23T14:57:34;6.70;;;1.30;;
21492;SDS011;10908;50.690;4.400;2024-03-23T15:00:00;7.72;;;1.33;;
21492;SDS011;10908;50.690;4.400;2024-03-23T15:02:26;8.60;;;1.10;;
21492;SDS011;10908;50.690;4.400;2024-03-23T15:04:53;5.88;;;1.17;;
21492;SDS011;10908;50.690;4.400;2024-03-23T15:07:19;8.77;;;1.10;;
21492;SDS011;10908;50.690;4.400;2024-03-23T15:09:45;6.80;;;1.33;;
21492;SDS011;10908;50.690;4.400;2024-03-23T15:12:10;8.85;;;1.90;;
21492;SDS011;10908;50.690;4.400;2024-03-23T15:14:36;6.45;;;0.98;;
21492;SDS011;10908;50.690;4.400;2024-03-23T15:17:02;6.65;;;1.58;;
21492;SDS011;10908;50.690;4.400;2024-03-23T15:19:32;7.38;;;1.30;;
21492;SDS011;10908;50.690;4.400;2024-03-23T15:21:57;6.85;;;1.25;;
21492;SDS011;10908;50.690;4.400;2024-03-23T15:24:23;3.63;;;0.90;;
21492;SDS011;10908;50.690;4.400;2024-03-23T15:26:49;5.80;;;0.70;;
21492;SDS011;10908;50.690;4.400;2024-03-23T15:29:17;4.65;;;0.73;;
21492;SDS011;10908;50.690;4.400;2024-03-23T15:31:43;6.80;;;0.90;;
21492;SDS011;10908;50.690;4.400;2024-03-23T15:34:08;7.30;;;1.35;;
21492;SDS011;10908;50.690;4.400;2024-03-23T15:36:37;7.38;;;1.30;;
21492;SDS011;10908;50.690;4.400;2024-03-23T15:39:06;8.13;;;1.77;;
21492;SDS011;10908;50.690;4.400;2024-03-23T15:41:31;9.80;;;1.13;;
21492;SDS011;10908;50.690;4.400;2024-03-23T15:43:59;6.90;;;1.23;;